首页
METAR-TAF:

METAR-TAF

机场 :

哈茨菲尔德-杰克逊亚特兰大国际机场

亚特兰大, 喬治亞, 美国

纬度: 33-38-25N, 经度: 084-25-37W, 海拔: 313米

当前天气观测

该预报发布于46分钟前的13:52 UTC
风速4节,风向东转东北
温度 15°C
湿度 55%
气压 1024 hPa
能見度: 16.1公里
少量云层高于4000英尺
散云层高于25000英尺
阴天层高于30000英尺

METAR: KATL 231352Z 06004KT 10SM FEW040 SCT250 OVC300 15/06 A3024 RMK AO2 SLP237 T01500061

时间: 10:38 (14:38 UTC)

预报

该预报发布于44分钟前的13:54 UTC
预报有效从23日的 14点(UTC)到 24日的 18点(UTC)
风速5节,风向北转东北
能見度: 10公里
少量云层高于4000英尺
多云层高于25000英尺
从 23日的 1700点(UTC)
风速6节,风向西北
能見度: 10公里
多云层高于25000英尺
从 24日的 0900点(UTC)
风速5节,风向
能見度: 10公里
散云层高于25000英尺
从 24日的 1300点(UTC)
风速6节,风向北转东北
能見度: 10公里
少量云层高于25000英尺

TAF: KATL 231354Z 2314/2418 03005KT P6SM FEW040 BKN250 FM231700 32006KT P6SM BKN250 FM240900 35005KT P6SM SCT250 FM241300 03006KT P6SM FEW250

超过4000个机场的气象观测和天气预报(METAR&TAF报告)。

可查询的气象台以黄色和红色小点在地图上表示。

将鼠标移到小点上方,可查看气象台名称。

然后点击查看天气观测和预报。

如需切换地图:点击带黑十字的绿色按钮放大地图;点击带横线的绿色按钮缩小地图;或者点击绿色箭头查看邻近地区的地图。


METAR-TAF: